Time;durP1;ratioP1;P1;durP2;ratioP2;P2;SDS_P1;SDS_P2;PMS_P1;PMS_P2;Temp;Humidity;BMP_temperature;BMP_pressure;BME280_temperature;BME280_humidity;BME280_pressure;Samples;Min_cycle;Max_cycle;Signal;HPM_P1;HPM_P2
2023/10/02 00:00:41;;;;;;;27.42;12.70;;;18.60;99.90;;;;;;4968852;28;20035;-79
2023/10/02 00:03:09;;;;;;;27.35;12.38;;;18.70;99.90;;;;;;4965782;28;20038;-79
2023/10/02 00:05:50;;;;;;;31.15;13.43;;;18.80;99.90;;;;;;4965272;28;20034;-79
2023/10/02 00:08:31;;;;;;;28.85;12.63;;;18.90;99.90;;;;;;4962709;28;20032;-79
2023/10/02 00:11:05;;;;;;;26.45;11.88;;;18.90;99.90;;;;;;4968268;28;20501;-79
2023/10/02 00:13:32;;;;;;;28.35;12.13;;;19.00;99.90;;;;;;4968416;28;20051;-78
2023/10/02 00:15:58;;;;;;;28.13;12.23;;;19.00;99.90;;;;;;4969524;28;20071;-80
2023/10/02 00:18:27;;;;;;;29.23;13.50;;;19.10;99.90;;;;;;4970477;28;20051;-82
2023/10/02 00:21:17;;;;;;;29.33;12.65;;;19.20;99.90;;;;;;4968047;28;20035;-79
2023/10/02 00:23:59;;;;;;;34.75;13.27;;;19.20;99.90;;;;;;4969323;28;20027;-81
2023/10/02 00:26:25;;;;;;;30.73;12.05;;;19.20;99.90;;;;;;4966829;28;20086;-77
2023/10/02 00:28:50;;;;;;;26.25;11.38;;;19.20;99.90;;;;;;4968575;28;20268;-83
2023/10/02 00:31:32;;;;;;;29.30;12.30;;;19.30;99.90;;;;;;4968332;28;20041;-79
2023/10/02 00:33:59;;;;;;;30.55;12.77;;;19.30;99.90;;;;;;4969953;28;20034;-78
2023/10/02 00:36:25;;;;;;;29.70;12.65;;;19.30;99.90;;;;;;4968956;28;20081;-79
2023/10/02 00:38:51;;;;;;;28.40;12.77;;;19.30;99.90;;;;;;4963598;28;20472;-79
2023/10/02 00:41:16;;;;;;;29.98;12.20;;;19.40;99.90;;;;;;4966577;28;20031;-80
2023/10/02 00:43:45;;;;;;;28.25;12.27;;;19.40;99.90;;;;;;4968580;28;20038;-79
2023/10/02 00:46:23;;;;;;;29.35;13.27;;;19.40;99.90;;;;;;4965102;28;20431;-79
2023/10/02 00:48:50;;;;;;;26.67;12.38;;;19.40;99.90;;;;;;4964763;28;20037;-78
2023/10/02 00:51:15;;;;;;;25.95;12.45;;;19.40;99.90;;;;;;4967069;28;20030;-79
2023/10/02 00:53:48;;;;;;;28.13;13.13;;;19.40;99.90;;;;;;4963413;28;20089;-78
2023/10/02 00:56:23;;;;;;;28.30;12.15;;;19.40;99.90;;;;;;4966612;28;20060;-79
2023/10/02 00:59:00;;;;;;;30.20;11.95;;;19.40;99.90;;;;;;4966212;28;20350;-79
2023/10/02 01:01:31;;;;;;;24.95;11.57;;;19.50;99.90;;;;;;4965350;28;20464;-78
2023/10/02 01:04:10;;;;;;;32.95;12.70;;;19.50;99.90;;;;;;4965650;28;20495;-80
2023/10/02 01:09:33;;;;;;;28.67;12.82;;;19.50;99.90;;;;;;4962438;28;20034;-79
2023/10/02 01:11:59;;;;;;;25.23;11.98;;;19.50;99.90;;;;;;4968002;28;20064;-79
2023/10/02 01:17:17;;;;;;;25.83;11.95;;;19.60;99.90;;;;;;4966850;28;20153;-79
2023/10/02 01:19:54;;;;;;;32.95;13.05;;;19.60;99.90;;;;;;4963440;28;20127;-79
2023/10/02 01:22:36;;;;;;;31.52;12.68;;;19.60;99.90;;;;;;4958063;28;20483;-77
2023/10/02 01:25:15;;;;;;;30.05;12.57;;;19.60;99.90;;;;;;4965788;28;20031;-79
2023/10/02 01:27:42;;;;;;;28.13;12.38;;;19.60;99.90;;;;;;4964950;28;20035;-77
2023/10/02 01:30:20;;;;;;;27.75;12.05;;;19.60;99.90;;;;;;4968518;28;20575;-78
2023/10/02 01:33:12;;;;;;;27.63;12.02;;;19.60;99.90;;;;;;4967569;28;20035;-79
2023/10/02 01:35:51;;;;;;;28.90;12.57;;;19.50;99.90;;;;;;4963808;28;20043;-78
2023/10/02 01:38:33;;;;;;;27.63;12.55;;;19.40;99.90;;;;;;4969091;28;20067;-78
2023/10/02 01:41:04;;;;;;;28.00;12.57;;;19.30;99.90;;;;;;4967458;28;20138;-79
2023/10/02 01:43:44;;;;;;;28.30;12.52;;;19.30;99.90;;;;;;4968267;28;20042;-80
2023/10/02 01:46:11;;;;;;;25.00;12.43;;;19.20;99.90;;;;;;4959855;28;20038;-79
2023/10/02 01:48:41;;;;;;;31.58;12.75;;;19.20;99.90;;;;;;4965152;28;20096;-78
2023/10/02 01:51:20;;;;;;;30.50;12.60;;;19.20;99.90;;;;;;4966919;28;20526;-80
2023/10/02 01:53:48;;;;;;;32.95;11.85;;;19.10;99.90;;;;;;4960730;28;20086;-79
2023/10/02 01:56:16;;;;;;;26.67;12.27;;;19.10;99.90;;;;;;4968199;28;20458;-79
2023/10/02 01:58:44;;;;;;;29.38;12.18;;;19.10;99.90;;;;;;4963246;28;20062;-78
2023/10/02 02:01:11;;;;;;;33.83;13.02;;;19.10;99.90;;;;;;4961552;28;20127;-80
2023/10/02 02:03:38;;;;;;;27.98;13.30;;;19.10;99.90;;;;;;4966759;28;20023;-78
2023/10/02 02:06:10;;;;;;;27.90;13.15;;;19.20;99.90;;;;;;4967168;28;20305;-78
2023/10/02 02:08:37;;;;;;;28.60;12.90;;;19.20;99.90;;;;;;4966585;28;20391;-79
2023/10/02 02:11:20;;;;;;;30.30;12.55;;;19.20;99.90;;;;;;4967097;28;20031;-79
2023/10/02 02:13:53;;;;;;;27.95;11.52;;;19.30;99.90;;;;;;4960955;28;20047;-79
2023/10/02 02:16:31;;;;;;;27.40;13.52;;;19.10;99.90;;;;;;4958391;28;20127;-79
2023/10/02 02:18:58;;;;;;;30.48;12.85;;;19.20;99.90;;;;;;4965515;28;20034;-79
2023/10/02 02:21:24;;;;;;;27.08;12.13;;;19.30;99.90;;;;;;4965911;28;20117;-78
2023/10/02 02:24:03;;;;;;;24.67;12.00;;;19.30;99.90;;;;;;4967305;28;20027;-79
2023/10/02 02:26:31;;;;;;;25.50;11.80;;;19.30;99.90;;;;;;4966332;28;20062;-80
2023/10/02 02:28:57;;;;;;;30.02;11.48;;;19.20;99.90;;;;;;4962929;28;20027;-80
2023/10/02 02:31:29;;;;;;;26.48;12.20;;;19.20;99.90;;;;;;4966767;28;20381;-80
2023/10/02 02:34:01;;;;;;;25.92;11.38;;;19.30;99.90;;;;;;4961204;28;20448;-77
2023/10/02 02:36:34;;;;;;;25.50;13.35;;;19.30;99.90;;;;;;4966515;28;20054;-78
2023/10/02 02:39:15;;;;;;;27.23;12.77;;;19.30;99.90;;;;;;4963314;28;20034;-81
2023/10/02 02:41:46;;;;;;;31.05;13.50;;;19.30;99.90;;;;;;4964950;28;20038;-78
2023/10/02 02:46:57;;;;;;;27.25;13.00;;;19.30;99.90;;;;;;4957653;28;20040;-78
2023/10/02 02:49:29;;;;;;;34.50;12.38;;;19.40;99.90;;;;;;4961459;28;20670;-79
2023/10/02 02:51:58;;;;;;;30.38;12.63;;;19.40;99.90;;;;;;4965937;28;20104;-78
2023/10/02 02:54:25;;;;;;;33.65;13.20;;;19.30;99.90;;;;;;4965803;28;20038;-79
2023/10/02 02:57:00;;;;;;;28.30;12.25;;;19.40;99.90;;;;;;4964490;28;20063;-79
2023/10/02 02:59:27;;;;;;;34.42;12.40;;;19.40;99.90;;;;;;4959808;28;20027;-78
2023/10/02 03:02:08;;;;;;;31.30;12.63;;;19.40;99.90;;;;;;4963825;28;20066;-79
2023/10/02 03:04:36;;;;;;;30.80;13.18;;;19.40;99.90;;;;;;4965024;28;20503;-79
2023/10/02 03:07:08;;;;;;;27.80;11.27;;;19.40;99.90;;;;;;4963962;28;20046;-78
2023/10/02 03:09:36;;;;;;;28.08;12.73;;;19.40;99.90;;;;;;4963111;28;20037;-78
2023/10/02 03:12:05;;;;;;;28.65;12.02;;;19.30;99.90;;;;;;4961492;28;20109;-78
2023/10/02 03:14:32;;;;;;;27.98;11.98;;;19.30;99.90;;;;;;4964277;28;20054;-80
2023/10/02 03:17:22;;;;;;;26.55;12.35;;;19.40;99.90;;;;;;4965513;28;20293;-78
2023/10/02 03:19:45;;;;;;;28.83;12.73;;;19.30;99.90;;;;;;4963174;28;20350;-80
2023/10/02 03:22:11;;;;;;;30.55;12.98;;;19.30;99.90;;;;;;4962654;28;20097;-78
2023/10/02 03:24:39;;;;;;;30.50;13.30;;;19.30;99.90;;;;;;4966293;28;20403;-79
2023/10/02 03:27:08;;;;;;;29.35;12.75;;;19.30;99.90;;;;;;4966331;28;20015;-78
2023/10/02 03:29:35;;;;;;;28.65;11.73;;;19.30;99.90;;;;;;4963578;28;20412;-78
2023/10/02 03:32:01;;;;;;;27.20;12.23;;;19.30;99.90;;;;;;4964276;28;20077;-79
2023/10/02 03:34:29;;;;;;;29.63;12.38;;;19.30;99.90;;;;;;4967086;28;21174;-78
2023/10/02 03:36:59;;;;;;;27.92;12.65;;;19.30;99.90;;;;;;4963344;28;20027;-79
2023/10/02 03:42:15;;;;;;;28.15;12.23;;;19.30;99.90;;;;;;4963541;28;20546;-78
2023/10/02 03:44:43;;;;;;;24.88;11.65;;;19.30;99.90;;;;;;4965876;28;20034;-80
2023/10/02 03:47:12;;;;;;;26.42;12.35;;;19.20;99.90;;;;;;4967913;28;20031;-78
2023/10/02 03:49:45;;;;;;;23.40;10.70;;;19.20;99.90;;;;;;4969030;28;20038;-77
2023/10/02 03:52:17;;;;;;;27.95;11.88;;;19.10;99.90;;;;;;4970981;28;20462;-79
2023/10/02 03:54:45;;;;;;;28.10;12.43;;;19.10;99.90;;;;;;4970143;28;20118;-78
2023/10/02 03:57:37;;;;;;;24.90;11.13;;;19.10;99.90;;;;;;4964464;28;20027;-78
2023/10/02 04:00:13;;;;;;;33.90;13.10;;;19.10;99.90;;;;;;4964404;28;20057;-78
2023/10/02 04:02:43;;;;;;;25.85;11.82;;;19.10;99.90;;;;;;4963059;28;20448;-78
2023/10/02 04:05:10;;;;;;;26.92;11.82;;;19.00;99.90;;;;;;4960866;28;20491;-79
2023/10/02 04:07:36;;;;;;;28.05;12.63;;;19.00;99.90;;;;;;4959333;28;20019;-78
2023/10/02 04:10:06;;;;;;;26.92;11.85;;;19.00;99.90;;;;;;4965016;28;20026;-79
2023/10/02 04:12:50;;;;;;;29.17;12.77;;;19.00;99.90;;;;;;4964548;28;20030;-78
2023/10/02 04:15:17;;;;;;;26.83;12.15;;;19.00;99.90;;;;;;4958452;28;20478;-79
2023/10/02 04:17:49;;;;;;;26.52;10.95;;;19.00;99.90;;;;;;4963026;28;20038;-79
2023/10/02 04:20:51;;;;;;;31.92;12.63;;;19.00;99.90;;;;;;4961714;28;20058;-78
2023/10/02 04:23:21;;;;;;;25.77;11.65;;;19.00;99.90;;;;;;4943047;28;20031;-79
2023/10/02 04:26:12;;;;;;;27.27;11.82;;;19.00;99.90;;;;;;4964926;28;20042;-80
2023/10/02 04:28:55;;;;;;;31.45;12.50;;;19.00;99.90;;;;;;4962843;28;20026;-79
2023/10/02 04:32:04;;;;;;;33.00;13.70;;;19.00;99.90;;;;;;4968163;28;20026;-78
2023/10/02 04:34:36;;;;;;;25.05;11.63;;;19.00;99.90;;;;;;4969919;28;20391;-78
2023/10/02 04:37:19;;;;;;;30.48;12.65;;;18.90;99.90;;;;;;4966903;28;20086;-78
2023/10/02 04:45:52;;;;;;;32.45;13.07;;;18.80;99.90;;;;;;4960172;28;20062;-79
2023/10/02 04:51:09;;;;;;;31.77;12.85;;;18.60;99.90;;;;;;4964814;28;20550;-78
2023/10/02 04:53:47;;;;;;;27.30;12.07;;;18.60;99.90;;;;;;4965197;28;20023;-81
2023/10/02 04:58:49;;;;;;;23.92;11.60;;;18.70;99.90;;;;;;4963138;28;21001;-78
2023/10/02 05:02:15;;;;;;;30.83;11.70;;;18.60;99.90;;;;;;4961153;28;20038;-78
2023/10/02 05:04:38;;;;;;;30.35;13.10;;;18.60;99.90;;;;;;4963589;28;20041;-82
2023/10/02 05:07:07;;;;;;;26.45;12.45;;;18.60;99.90;;;;;;4958199;28;20504;-81
2023/10/02 05:09:53;;;;;;;28.77;12.43;;;18.60;99.90;;;;;;4968686;28;20041;-78
2023/10/02 05:12:22;;;;;;;31.02;13.70;;;18.60;99.90;;;;;;4959172;28;20134;-79
2023/10/02 05:14:51;;;;;;;26.55;12.63;;;18.50;99.90;;;;;;4963333;28;20053;-79
2023/10/02 05:17:17;;;;;;;28.92;12.32;;;18.50;99.90;;;;;;4976306;28;20666;-79
2023/10/02 05:19:56;;;;;;;28.85;12.68;;;18.40;99.90;;;;;;4965857;28;20026;-79
2023/10/02 05:22:44;;;;;;;27.67;12.23;;;18.40;99.90;;;;;;4965455;28;20118;-79
2023/10/02 05:25:10;;;;;;;30.30;12.50;;;18.40;99.90;;;;;;4958300;28;20056;-79
2023/10/02 05:27:40;;;;;;;28.70;13.32;;;18.40;99.90;;;;;;4962859;28;20039;-80
2023/10/02 05:30:23;;;;;;;;;;;;;;;;;;;;;
2023/10/02 05:32:51;;;;;;;31.63;12.77;;;18.40;99.90;;;;;;4955835;28;20527;-79
2023/10/02 05:35:18;;;;;;;30.83;13.15;;;18.30;99.90;;;;;;4965287;28;20051;-79
2023/10/02 05:37:45;;;;;;;32.20;13.90;;;18.30;99.90;;;;;;4960250;28;20375;-79
2023/10/02 05:43:09;;;;;;;29.70;13.13;;;18.30;99.90;;;;;;4962695;28;20644;-79
2023/10/02 05:45:39;;;;;;;29.05;12.18;;;18.30;99.90;;;;;;4966630;28;20117;-79
2023/10/02 05:48:07;;;;;;;29.33;13.18;;;18.30;99.90;;;;;;4960350;28;20739;-79
2023/10/02 05:50:40;;;;;;;27.83;12.55;;;18.30;99.90;;;;;;4962226;28;20027;-79
2023/10/02 05:53:06;;;;;;;30.50;13.35;;;18.30;99.90;;;;;;4959964;28;20395;-80
2023/10/02 05:55:56;;;;;;;27.42;12.20;;;18.30;99.90;;;;;;4963441;28;20060;-78
2023/10/02 05:58:27;;;;;;;29.05;12.88;;;18.30;99.90;;;;;;4964230;28;20038;-79
2023/10/02 06:00:54;;;;;;;27.30;12.95;;;18.40;99.90;;;;;;4957973;28;20027;-80
2023/10/02 06:03:21;;;;;;;28.33;12.95;;;18.40;99.90;;;;;;4958125;28;20033;-79
2023/10/02 06:06:10;;;;;;;32.20;13.25;;;18.40;99.90;;;;;;4955960;28;20058;-79
2023/10/02 06:08:34;;;;;;;28.13;12.93;;;18.40;99.90;;;;;;4961921;28;20038;-79
2023/10/02 06:11:59;;;;;;;32.10;13.38;;;18.40;99.90;;;;;;4961101;28;20035;-79
2023/10/02 06:13:48;;;;;;;28.88;12.73;;;18.40;99.90;;;;;;4952214;28;20065;-78
2023/10/02 06:16:14;;;;;;;27.45;12.13;;;18.40;99.90;;;;;;4958608;28;20048;-80
2023/10/02 06:18:41;;;;;;;30.13;12.50;;;18.40;99.90;;;;;;4960867;28;20031;-79
2023/10/02 06:21:07;;;;;;;34.30;13.38;;;18.50;99.90;;;;;;4962094;28;20034;-80
2023/10/02 06:23:39;;;;;;;30.02;13.98;;;18.50;99.90;;;;;;4963822;28;20022;-80
2023/10/02 06:26:09;;;;;;;27.42;11.75;;;18.50;99.90;;;;;;4960154;28;20097;-80
2023/10/02 06:28:35;;;;;;;24.52;11.48;;;18.60;99.90;;;;;;4957174;28;20097;-80
2023/10/02 06:31:02;;;;;;;28.55;12.38;;;18.60;99.90;;;;;;4957953;28;20033;-81
2023/10/02 06:33:27;;;;;;;26.98;11.77;;;18.60;99.90;;;;;;4961834;28;20089;-80
2023/10/02 06:35:57;;;;;;;31.92;11.85;;;18.60;99.90;;;;;;4958749;28;20034;-80
2023/10/02 06:38:31;;;;;;;29.67;13.02;;;18.60;99.90;;;;;;4953280;28;20022;-79
2023/10/02 06:40:57;;;;;;;27.40;12.17;;;18.70;99.90;;;;;;4956035;28;20031;-80
2023/10/02 06:43:31;;;;;;;29.33;12.32;;;18.70;99.90;;;;;;4961558;28;20544;-80
2023/10/02 06:46:13;;;;;;;27.60;12.30;;;18.80;99.90;;;;;;4961217;28;20057;-80
2023/10/02 06:48:45;;;;;;;25.13;11.02;;;18.80;99.90;;;;;;4955808;28;20019;-80
2023/10/02 06:51:21;;;;;;;28.65;11.60;;;18.80;99.90;;;;;;4959459;28;20506;-81
2023/10/02 06:53:46;;;;;;;26.73;11.32;;;18.90;99.90;;;;;;4959290;28;20092;-80
2023/10/02 06:56:18;;;;;;;22.90;11.00;;;18.90;99.90;;;;;;4959976;28;20034;-80
2023/10/02 06:58:49;;;;;;;25.35;10.93;;;18.90;99.90;;;;;;4958574;28;20023;-80
2023/10/02 07:01:18;;;;;;;22.40;11.00;;;19.00;99.90;;;;;;4953330;28;20018;-80
2023/10/02 07:03:51;;;;;;;24.33;11.55;;;19.00;99.90;;;;;;4953961;28;20033;-78
2023/10/02 07:06:24;;;;;;;26.02;11.27;;;19.00;99.90;;;;;;4960921;28;20037;-77
2023/10/02 07:11:35;;;;;;;27.47;12.57;;;19.20;99.90;;;;;;4956059;28;20448;-78
2023/10/02 07:14:04;;;;;;;27.70;12.50;;;19.30;99.90;;;;;;4963849;28;21687;-78
2023/10/02 07:16:32;;;;;;;27.55;11.77;;;19.30;99.90;;;;;;4962806;28;20078;-78
2023/10/02 07:18:58;;;;;;;23.50;11.02;;;19.40;99.90;;;;;;4963309;28;20046;-78
2023/10/02 07:21:25;;;;;;;26.40;11.90;;;19.40;99.90;;;;;;4964140;28;20031;-78
2023/10/02 07:23:50;;;;;;;29.80;11.80;;;19.60;99.90;;;;;;4964272;28;20397;-78
2023/10/02 07:26:20;;;;;;;23.13;11.13;;;19.60;99.90;;;;;;4965165;28;20054;-78
2023/10/02 07:28:53;;;;;;;21.15;10.93;;;19.70;99.90;;;;;;4961186;28;20403;-78
2023/10/02 07:31:23;;;;;;;22.25;10.68;;;19.70;99.90;;;;;;4960898;28;20383;-78
2023/10/02 07:33:48;;;;;;;22.60;10.48;;;19.70;99.90;;;;;;4959659;28;20023;-78
2023/10/02 07:36:15;;;;;;;16.92;9.52;;;19.70;99.90;;;;;;4965138;28;20116;-79
2023/10/02 07:38:47;;;;;;;19.85;10.00;;;19.80;99.90;;;;;;4964503;28;20050;-78
2023/10/02 07:41:17;;;;;;;22.90;10.57;;;19.80;99.90;;;;;;4964294;28;20038;-78
2023/10/02 07:43:42;;;;;;;20.00;9.43;;;19.80;99.90;;;;;;4960306;28;20142;-79
2023/10/02 07:46:14;;;;;;;29.83;10.73;;;19.90;99.90;;;;;;4964717;28;20134;-78
2023/10/02 07:48:41;;;;;;;22.10;10.43;;;20.00;99.90;;;;;;4959164;28;20038;-78
2023/10/02 07:51:09;;;;;;;23.77;11.30;;;20.00;99.90;;;;;;4966927;28;20428;-78
2023/10/02 07:53:43;;;;;;;23.25;10.98;;;20.00;99.90;;;;;;4965888;28;20035;-78
2023/10/02 07:56:11;;;;;;;28.52;12.85;;;20.10;99.90;;;;;;4964211;28;20271;-78
2023/10/02 07:58:37;;;;;;;26.20;11.48;;;20.20;99.90;;;;;;4967047;28;20101;-79
2023/10/02 08:01:11;;;;;;;22.10;9.98;;;20.20;99.90;;;;;;4963943;28;20030;-78
2023/10/02 08:03:49;;;;;;;22.20;11.43;;;20.20;99.90;;;;;;4959175;28;20428;-78
2023/10/02 08:06:21;;;;;;;28.33;12.20;;;20.30;99.90;;;;;;4961942;28;20541;-78
2023/10/02 08:09:24;;;;;;;22.23;10.80;;;20.30;99.90;;;;;;4956122;28;20026;-78
2023/10/02 08:11:34;;;;;;;25.77;11.30;;;20.30;99.90;;;;;;4959427;28;20439;-79
2023/10/02 08:14:42;;;;;;;26.40;10.77;;;20.30;99.90;;;;;;4958891;28;20113;-78
2023/10/02 08:17:21;;;;;;;22.77;11.07;;;20.30;99.90;;;;;;4947478;28;20043;-78
2023/10/02 08:19:54;;;;;;;20.48;10.23;;;20.30;99.90;;;;;;4949876;29;20031;-80
2023/10/02 08:22:24;;;;;;;25.33;12.00;;;20.30;99.90;;;;;;4946903;28;20077;-79
2023/10/02 08:24:52;;;;;;;23.70;10.50;;;20.40;99.90;;;;;;4948201;29;20038;-79
2023/10/02 08:27:20;;;;;;;22.08;10.07;;;20.40;99.90;;;;;;4947503;28;20506;-79
2023/10/02 08:29:46;;;;;;;19.73;10.13;;;20.40;99.90;;;;;;4947043;29;20027;-78
2023/10/02 08:32:12;;;;;;;22.10;10.30;;;20.40;99.90;;;;;;4950483;28;20090;-79
2023/10/02 08:34:37;;;;;;;21.13;10.57;;;20.40;99.90;;;;;;4946506;28;20047;-78
2023/10/02 08:37:07;;;;;;;24.20;11.43;;;20.50;99.90;;;;;;4945684;28;20070;-79
2023/10/02 08:39:41;;;;;;;23.63;10.75;;;20.60;99.90;;;;;;4943962;29;20188;-80
2023/10/02 08:42:09;;;;;;;24.33;10.57;;;20.60;99.90;;;;;;4948899;28;20033;-81
2023/10/02 08:44:40;;;;;;;19.98;9.95;;;20.50;99.90;;;;;;4947956;29;20047;-79
2023/10/02 08:47:24;;;;;;;23.52;10.85;;;20.70;99.90;;;;;;4951252;28;20031;-81
2023/10/02 08:50:03;;;;;;;28.23;11.00;;;20.70;99.90;;;;;;4947142;29;20035;-79
2023/10/02 08:52:38;;;;;;;20.45;10.45;;;20.80;99.90;;;;;;4947011;28;20062;-80
2023/10/02 08:58:17;;;;;;;21.80;10.65;;;20.80;99.90;;;;;;4941441;29;20035;-77
2023/10/02 09:03:41;;;;;;;29.70;11.63;;;21.00;99.90;;;;;;4945628;28;20066;-81
2023/10/02 09:11:37;;;;;;;20.85;10.38;;;21.20;99.90;;;;;;4947004;28;20151;-79
2023/10/02 09:16:46;;;;;;;24.38;10.50;;;21.20;99.90;;;;;;4943796;28;20048;-79
2023/10/02 09:19:31;;;;;;;20.48;11.02;;;21.20;99.90;;;;;;4943224;28;20035;-79
2023/10/02 09:22:07;;;;;;;26.08;11.02;;;21.30;99.90;;;;;;4939040;28;20046;-80
2023/10/02 09:24:55;;;;;;;25.60;12.40;;;21.40;99.90;;;;;;4948595;28;20519;-79
2023/10/02 09:27:28;;;;;;;22.83;11.98;;;21.50;99.90;;;;;;4932139;28;20308;-78
2023/10/02 09:30:19;;;;;;;18.67;10.35;;;21.60;99.90;;;;;;4944773;28;20039;-78
2023/10/02 09:32:47;;;;;;;23.15;10.10;;;21.60;99.90;;;;;;4944870;28;20395;-78
2023/10/02 09:35:29;;;;;;;24.48;11.50;;;21.60;99.90;;;;;;4946714;28;20027;-80
2023/10/02 09:38:06;;;;;;;22.70;10.82;;;21.50;99.90;;;;;;4942564;28;20039;-79
2023/10/02 09:43:23;;;;;;;24.27;11.00;;;21.70;99.90;;;;;;4944762;28;20106;-81
2023/10/02 09:45:56;;;;;;;18.23;10.15;;;21.80;99.90;;;;;;4948921;28;20043;-81
2023/10/02 09:48:57;;;;;;;20.88;10.55;;;21.90;99.90;;;;;;4948171;28;20820;-81
2023/10/02 09:51:26;;;;;;;22.65;10.05;;;22.00;99.90;;;;;;4942028;28;20023;-78
2023/10/02 09:54:13;;;;;;;24.63;9.68;;;22.10;99.90;;;;;;4944330;28;20396;-77
2023/10/02 09:56:51;;;;;;;20.13;10.00;;;22.10;99.90;;;;;;4941707;28;20403;-77
2023/10/02 09:59:21;;;;;;;18.50;9.70;;;22.30;99.90;;;;;;4944778;28;20069;-79
2023/10/02 10:02:08;;;;;;;22.48;10.70;;;22.40;99.90;;;;;;4957869;28;20443;-78
2023/10/02 10:13:37;;;;;;;19.35;10.00;;;22.50;99.90;;;;;;4946414;28;20098;-79
2023/10/02 10:16:20;;;;;;;21.83;9.80;;;22.50;99.90;;;;;;4959751;28;20137;-79
2023/10/02 10:21:57;;;;;;;18.10;8.98;;;22.60;99.90;;;;;;4964034;28;20545;-79
2023/10/02 10:24:31;;;;;;;26.55;11.05;;;22.70;99.90;;;;;;4963841;28;20131;-82
2023/10/02 10:26:57;;;;;;;18.60;9.27;;;22.70;99.90;;;;;;4964505;28;20026;-80
2023/10/02 10:29:41;;;;;;;18.88;8.80;;;22.70;99.90;;;;;;4966748;28;20478;-78
2023/10/02 10:32:23;;;;;;;21.70;9.30;;;22.70;99.90;;;;;;4965586;28;20412;-78
2023/10/02 10:35:11;;;;;;;17.80;8.80;;;22.80;99.90;;;;;;4967921;28;20042;-78
2023/10/02 10:37:47;;;;;;;20.30;9.95;;;22.90;99.90;;;;;;4969664;28;20038;-79
2023/10/02 10:40:44;;;;;;;17.17;8.88;;;22.90;99.90;;;;;;4959966;28;20046;-80
2023/10/02 10:43:14;;;;;;;24.10;10.00;;;22.90;99.90;;;;;;4961720;28;20030;-80
2023/10/02 10:45:40;;;;;;;18.25;9.20;;;22.90;99.90;;;;;;4966884;28;20030;-79
2023/10/02 10:48:22;;;;;;;20.85;8.68;;;22.90;99.90;;;;;;4963758;28;20035;-82
2023/10/02 10:51:06;;;;;;;24.75;8.88;;;22.90;99.90;;;;;;4971297;28;20041;-78
2023/10/02 10:53:41;;;;;;;16.98;8.77;;;23.00;99.90;;;;;;4966133;28;20047;-79
2023/10/02 10:56:19;;;;;;;19.80;8.77;;;23.10;99.90;;;;;;4963116;28;20558;-79
2023/10/02 10:59:09;;;;;;;19.15;9.68;;;23.20;99.90;;;;;;4955944;28;20043;-78
2023/10/02 11:01:34;;;;;;;20.60;8.95;;;23.30;99.90;;;;;;4960327;28;20093;-79
2023/10/02 11:04:03;;;;;;;19.30;8.63;;;23.40;99.90;;;;;;4953993;28;20047;-79
2023/10/02 11:06:29;;;;;;;16.02;7.82;;;23.40;99.90;;;;;;4957919;28;20236;-79
2023/10/02 11:09:12;;;;;;;16.50;8.82;;;23.40;99.90;;;;;;4956476;28;20098;-77
2023/10/02 11:11:53;;;;;;;19.23;8.30;;;23.40;99.90;;;;;;4961949;28;20039;-78
2023/10/02 11:14:34;;;;;;;19.02;8.73;;;23.50;99.90;;;;;;4964073;28;20039;-78
2023/10/02 11:17:04;;;;;;;21.92;8.68;;;23.60;99.90;;;;;;4958819;28;20074;-78
2023/10/02 11:22:16;;;;;;;16.17;8.40;;;23.70;99.90;;;;;;4957335;28;20039;-78
2023/10/02 11:24:46;;;;;;;17.17;8.18;;;23.70;99.90;;;;;;4961414;28;20453;-77
2023/10/02 11:27:15;;;;;;;18.52;8.57;;;23.70;99.90;;;;;;4957093;28;20031;-79
2023/10/02 11:29:42;;;;;;;18.02;8.73;;;23.80;99.90;;;;;;4958406;28;20031;-77
2023/10/02 11:32:21;;;;;;;17.65;8.13;;;23.80;99.90;;;;;;4958771;28;20446;-77
2023/10/02 11:35:00;;;;;;;16.88;8.13;;;23.80;99.90;;;;;;4965199;28;20041;-79
2023/10/02 11:37:26;;;;;;;17.30;8.80;;;23.80;99.90;;;;;;4960048;28;20472;-78
2023/10/02 11:39:56;;;;;;;15.55;8.00;;;23.90;99.90;;;;;;4961996;28;20030;-79
2023/10/02 11:42:23;;;;;;;18.92;7.85;;;23.90;99.90;;;;;;4960293;28;20410;-80
2023/10/02 11:44:49;;;;;;;14.85;7.22;;;23.90;99.90;;;;;;4956421;28;20430;-78
2023/10/02 11:47:15;;;;;;;16.63;8.10;;;23.90;99.90;;;;;;4965401;28;20109;-78
2023/10/02 11:49:42;;;;;;;12.38;6.82;;;23.90;99.90;;;;;;4967858;28;20546;-79
2023/10/02 11:52:08;;;;;;;15.10;7.20;;;24.00;99.90;;;;;;4966938;28;20530;-78
2023/10/02 11:54:36;;;;;;;15.93;7.75;;;24.10;99.90;;;;;;4969183;28;20031;-77
2023/10/02 11:57:08;;;;;;;27.10;7.65;;;24.20;99.90;;;;;;4966951;28;20442;-79
2023/10/02 11:59:34;;;;;;;14.80;7.28;;;24.30;99.90;;;;;;4961534;28;20038;-79
2023/10/02 12:02:01;;;;;;;18.13;8.02;;;24.30;99.90;;;;;;4961703;28;20034;-78
2023/10/02 12:04:27;;;;;;;15.82;7.00;;;24.30;99.90;;;;;;4967912;28;20200;-79
2023/10/02 12:06:55;;;;;;;13.80;7.20;;;24.40;99.90;;;;;;4964239;28;20019;-79
2023/10/02 12:09:24;;;;;;;15.32;7.47;;;24.40;99.90;;;;;;4968843;28;20034;-78
2023/10/02 12:11:51;;;;;;;16.15;7.70;;;24.40;99.90;;;;;;4960926;28;20113;-79
2023/10/02 12:14:16;;;;;;;19.25;7.65;;;24.50;99.90;;;;;;4960304;28;20050;-78
2023/10/02 12:16:43;;;;;;;13.68;7.15;;;24.60;99.90;;;;;;4963321;28;22608;-77
2023/10/02 12:19:10;;;;;;;16.42;7.90;;;24.50;99.90;;;;;;4963087;28;20034;-79
2023/10/02 12:21:37;;;;;;;19.27;7.22;;;24.60;99.90;;;;;;4960610;28;20399;-78
2023/10/02 12:24:05;;;;;;;15.57;8.32;;;24.60;99.90;;;;;;4964187;28;20022;-80
2023/10/02 12:26:30;;;;;;;14.68;7.22;;;24.60;99.90;;;;;;4966224;28;20030;-79
2023/10/02 12:28:56;;;;;;;14.80;7.25;;;24.60;99.90;;;;;;4962027;28;20027;-79
2023/10/02 12:31:22;;;;;;;12.82;6.70;;;24.60;99.90;;;;;;4968195;28;20475;-78
2023/10/02 12:33:52;;;;;;;15.52;6.68;;;24.70;99.90;;;;;;4961456;28;20486;-76
2023/10/02 12:36:22;;;;;;;14.40;7.88;;;24.70;99.90;;;;;;4963408;28;20121;-78
2023/10/02 12:38:50;;;;;;;17.50;7.60;;;24.70;99.90;;;;;;4955937;28;20041;-78
2023/10/02 12:41:17;;;;;;;17.23;8.35;;;24.70;99.90;;;;;;4960862;28;20027;-79
2023/10/02 12:43:43;;;;;;;19.48;7.00;;;24.70;99.90;;;;;;4957286;28;20026;-79
2023/10/02 12:46:14;;;;;;;27.98;7.93;;;24.70;99.90;;;;;;4964687;28;20125;-79
2023/10/02 12:48:46;;;;;;;14.52;7.40;;;24.80;99.90;;;;;;4959766;28;20522;-78
2023/10/02 12:51:13;;;;;;;17.05;7.07;;;24.80;99.90;;;;;;4957306;28;20037;-80
2023/10/02 12:53:39;;;;;;;13.57;6.38;;;24.90;99.90;;;;;;4960046;28;20090;-79
2023/10/02 12:56:05;;;;;;;16.60;5.90;;;25.00;99.90;;;;;;4962950;28;20445;-80
2023/10/02 12:58:35;;;;;;;12.88;6.57;;;24.90;99.90;;;;;;4961606;28;20037;-80
2023/10/02 13:01:01;;;;;;;16.23;7.45;;;24.90;99.90;;;;;;4958525;28;20047;-79
2023/10/02 13:03:31;;;;;;;18.35;7.70;;;24.80;99.90;;;;;;4959348;28;20049;-79
2023/10/02 13:06:02;;;;;;;13.30;7.07;;;24.80;99.90;;;;;;4960548;28;20399;-79
2023/10/02 13:08:29;;;;;;;14.23;7.65;;;24.70;99.90;;;;;;4956231;28;20159;-78
2023/10/02 13:10:55;;;;;;;13.65;7.13;;;24.60;99.90;;;;;;4958689;28;20031;-78
2023/10/02 13:13:21;;;;;;;15.43;6.60;;;24.50;99.90;;;;;;4959220;28;20355;-76
2023/10/02 13:15:50;;;;;;;14.45;7.00;;;24.50;99.90;;;;;;4963788;28;20071;-80
2023/10/02 13:18:15;;;;;;;14.40;7.00;;;24.50;99.90;;;;;;4960992;28;20125;-78
2023/10/02 13:20:43;;;;;;;17.35;6.55;;;24.40;99.90;;;;;;4959805;28;20119;-77
2023/10/02 13:23:13;;;;;;;15.45;6.43;;;24.40;99.90;;;;;;4961644;28;20027;-78
2023/10/02 13:25:42;;;;;;;15.00;6.32;;;24.40;99.90;;;;;;4960403;28;20566;-78
2023/10/02 13:28:11;;;;;;;16.58;7.65;;;24.40;99.90;;;;;;4961056;28;20066;-79
2023/10/02 13:30:43;;;;;;;15.43;6.57;;;24.40;99.90;;;;;;4962599;28;20054;-77
2023/10/02 13:33:12;;;;;;;17.25;6.63;;;24.30;99.90;;;;;;4956026;28;20532;-79
2023/10/02 13:35:39;;;;;;;11.75;6.30;;;24.20;99.90;;;;;;4962562;28;20037;-78
2023/10/02 13:38:06;;;;;;;12.45;6.68;;;24.20;99.90;;;;;;4963788;28;20034;-78
2023/10/02 13:41:26;;;;;;;16.70;6.97;;;24.20;99.90;;;;;;4961712;28;20189;-79
2023/10/02 13:43:55;;;;;;;13.73;6.90;;;24.20;99.90;;;;;;4938861;28;20043;-79
2023/10/02 13:46:22;;;;;;;26.60;7.47;;;24.10;99.90;;;;;;4961523;28;20058;-79
2023/10/02 13:48:52;;;;;;;12.07;6.68;;;24.10;99.90;;;;;;4960063;28;20057;-79
2023/10/02 13:51:17;;;;;;;20.80;7.80;;;24.10;99.90;;;;;;4962538;28;20027;-79
2023/10/02 13:53:44;;;;;;;15.32;7.30;;;24.10;99.90;;;;;;4960287;28;20038;-79
2023/10/02 13:56:16;;;;;;;16.60;7.25;;;24.00;99.90;;;;;;4956160;28;20027;-80